createdAt,value
2022-11-03T00:01:01.238Z,2.27
2022-11-03T00:06:05.880Z,2.60
2022-11-03T00:11:11.427Z,2.60
2022-11-03T00:16:14.385Z,3.00
2022-11-03T00:21:18.823Z,3.00
2022-11-03T00:26:23.669Z,2.20
2022-11-03T00:31:28.389Z,2.43
2022-11-03T00:36:35.178Z,2.87
2022-11-03T00:41:38.932Z,2.70
2022-11-03T00:46:42.219Z,2.40
2022-11-03T00:51:46.588Z,3.00
2022-11-03T00:56:49.526Z,2.40
2022-11-03T01:01:52.905Z,2.93
2022-11-03T01:06:59.793Z,2.53
2022-11-03T01:12:07.175Z,2.83
2022-11-03T01:17:12.727Z,2.37
2022-11-03T01:22:18.001Z,2.50
2022-11-03T01:27:22.579Z,2.33
2022-11-03T01:32:25.483Z,2.87
2022-11-03T01:37:30.817Z,2.97
2022-11-03T01:42:33.741Z,2.43
2022-11-03T01:47:37.815Z,2.70
2022-11-03T01:52:46.052Z,2.80
2022-11-03T01:57:56.870Z,2.80
2022-11-03T02:03:01.272Z,2.50
2022-11-03T02:08:11.011Z,2.60
2022-11-03T02:13:20.441Z,2.80
2022-11-03T02:18:27.032Z,2.70
2022-11-03T02:23:38.013Z,2.60
2022-11-03T02:28:42.979Z,2.87
2022-11-03T02:33:55.012Z,2.47
2022-11-03T02:39:03.001Z,2.43
2022-11-03T02:44:13.544Z,2.33
2022-11-03T02:49:16.925Z,2.60
2022-11-03T02:54:24.978Z,2.60
2022-11-03T02:59:35.698Z,2.47
2022-11-03T03:04:43.628Z,2.53
2022-11-03T03:09:54.466Z,2.17
2022-11-03T03:15:02.294Z,2.23
2022-11-03T03:20:09.456Z,2.33
2022-11-03T03:25:16.855Z,2.50
2022-11-03T03:30:21.823Z,2.23
2022-11-03T03:35:27.864Z,1.93
2022-11-03T03:40:35.153Z,2.20
2022-11-03T03:45:40.457Z,1.90
2022-11-03T03:50:45.565Z,2.20
2022-11-03T03:55:52.177Z,1.80
2022-11-03T04:00:56.620Z,1.80
2022-11-03T04:05:59.659Z,2.07
2022-11-03T04:11:20.230Z,2.23
2022-11-03T04:16:42.209Z,1.80
2022-11-03T04:22:02.999Z,2.03
2022-11-03T04:27:20.167Z,1.83
2022-11-03T04:32:24.647Z,1.80
2022-11-03T04:37:29.577Z,2.47
2022-11-03T04:42:34.648Z,1.90
2022-11-03T04:47:38.975Z,1.97
2022-11-03T04:52:42.088Z,3.17
2022-11-03T04:57:45.751Z,2.03
2022-11-03T05:02:55.933Z,1.90
2022-11-03T05:08:00.309Z,1.70
2022-11-03T05:13:03.673Z,1.80
2022-11-03T05:18:19.006Z,1.93
2022-11-03T05:23:22.880Z,1.67
2022-11-03T05:28:28.068Z,2.20
2022-11-03T05:33:35.722Z,1.60
2022-11-03T05:38:38.660Z,1.80
2022-11-03T05:43:41.644Z,2.20
2022-11-03T05:48:46.043Z,1.63
2022-11-03T05:53:51.808Z,2.00
2022-11-03T05:58:56.927Z,2.13
2022-11-03T06:04:05.806Z,2.27
2022-11-03T06:09:14.061Z,2.20
2022-11-03T06:14:24.448Z,2.47
2022-11-03T06:19:32.471Z,2.00
2022-11-03T06:24:36.159Z,2.20
2022-11-03T06:29:39.396Z,1.60
2022-11-03T06:34:47.144Z,2.33
2022-11-03T06:39:50.801Z,2.20
2022-11-03T06:44:53.850Z,2.23
2022-11-03T06:50:00.664Z,1.93
2022-11-03T06:55:22.781Z,1.90
2022-11-03T07:00:34.034Z,2.53
2022-11-03T07:05:40.396Z,2.00
2022-11-03T07:10:43.713Z,1.73
2022-11-03T07:15:47.352Z,2.40
2022-11-03T07:20:52.998Z,1.93
2022-11-03T07:26:00.519Z,2.27
2022-11-03T07:31:16.380Z,2.27
2022-11-03T07:36:23.978Z,2.00
2022-11-03T07:41:33.080Z,2.30
2022-11-03T07:46:38.045Z,1.70
2022-11-03T07:51:42.889Z,2.20
2022-11-03T07:56:48.785Z,2.33
2022-11-03T08:01:54.497Z,2.70
2022-11-03T08:06:59.170Z,2.07
2022-11-03T08:12:02.102Z,2.00
2022-11-03T08:17:05.422Z,1.87
2022-11-03T08:22:10.172Z,1.57
2022-11-03T08:27:13.071Z,2.20
2022-11-03T08:32:16.032Z,2.30
2022-11-03T08:37:20.491Z,1.90
2022-11-03T08:42:23.608Z,1.40
2022-11-03T08:47:26.528Z,1.60
2022-11-03T08:52:31.080Z,1.53
2022-11-03T08:57:34.065Z,1.93
2022-11-03T09:02:37.263Z,2.10
2022-11-03T09:13:05.950Z,2.10
2022-11-03T09:18:09.998Z,1.50
2022-11-03T09:23:14.705Z,1.40
2022-11-03T09:28:18.267Z,1.58
2022-11-03T09:33:21.261Z,1.67
2022-11-03T09:38:25.512Z,2.13
2022-11-03T09:43:28.533Z,1.60
2022-11-03T09:48:31.550Z,1.73
2022-11-03T09:53:35.967Z,3.17
2022-11-03T09:58:38.955Z,1.60
2022-11-03T10:03:42.067Z,1.67
2022-11-03T10:08:48.707Z,1.98
2022-11-03T10:13:56.125Z,1.30
2022-11-03T10:19:00.909Z,1.80
2022-11-03T10:24:07.063Z,1.58
2022-11-03T10:34:34.458Z,1.67
2022-11-03T10:39:39.289Z,1.10
2022-11-03T10:44:42.355Z,1.30
2022-11-03T10:49:45.328Z,1.65
2022-11-03T10:54:50.969Z,1.30
2022-11-03T10:59:55.565Z,1.27
2022-11-03T11:05:00.946Z,1.50
2022-11-03T11:10:12.952Z,1.60
2022-11-03T11:15:39.664Z,2.10
2022-11-03T11:20:43.203Z,1.50
2022-11-03T11:26:14.550Z,1.38
2022-11-03T11:32:12.391Z,1.30
2022-11-03T11:37:36.140Z,1.75
2022-11-03T11:43:22.935Z,1.38
2022-11-03T11:48:26.146Z,1.52
2022-11-03T11:53:39.180Z,1.80
2022-11-03T11:58:46.489Z,1.50
2022-11-03T12:03:51.138Z,1.60
2022-11-03T12:09:05.948Z,1.40
2022-11-03T12:14:25.984Z,1.55
2022-11-03T12:19:37.210Z,1.40
2022-11-03T12:24:52.994Z,1.40
2022-11-03T12:29:59.557Z,1.50
2022-11-03T12:35:03.037Z,1.50
2022-11-03T12:40:07.360Z,1.42
2022-11-03T12:45:13.883Z,1.73
2022-11-03T12:50:17.275Z,1.23
2022-11-03T12:55:20.363Z,1.38
2022-11-03T13:00:24.984Z,1.50
2022-11-03T13:05:27.990Z,1.38
2022-11-03T13:10:31.077Z,1.35
2022-11-03T13:15:35.699Z,1.48
2022-11-03T13:20:39.200Z,1.63
2022-11-03T13:25:52.864Z,1.70
2022-11-03T13:30:57.554Z,1.77
2022-11-03T13:36:00.782Z,1.60
2022-11-03T13:41:08.430Z,1.50
2022-11-03T13:46:14.049Z,1.63
2022-11-03T13:51:18.626Z,1.83
2022-11-03T13:56:22.753Z,1.77
2022-11-03T14:01:27.857Z,1.50
2022-11-03T14:06:31.385Z,2.20
2022-11-03T14:11:52.207Z,1.98
2022-11-03T14:16:56.841Z,2.03
2022-11-03T14:21:59.969Z,2.17
2022-11-03T14:27:03.386Z,1.83
2022-11-03T14:32:08.223Z,2.20
2022-11-03T14:37:11.809Z,2.00
2022-11-03T14:42:16.768Z,1.80
2022-11-03T14:47:22.772Z,2.20
2022-11-03T14:52:26.396Z,2.30
2022-11-03T14:57:29.783Z,1.60
2022-11-03T15:02:34.276Z,1.70
2022-11-03T15:07:37.291Z,2.22
2022-11-03T15:12:40.374Z,2.15
2022-11-03T15:17:45.052Z,2.15
2022-11-03T15:28:12.972Z,3.45
2022-11-03T15:33:17.541Z,2.00
2022-11-03T15:38:20.866Z,2.20
2022-11-03T15:43:23.909Z,2.53
2022-11-03T15:48:33.476Z,2.35
2022-11-03T15:53:37.543Z,2.00
2022-11-03T15:58:40.992Z,2.00
2022-11-03T16:03:45.368Z,2.08
2022-11-03T16:08:48.334Z,2.17
2022-11-03T16:13:51.638Z,1.92
2022-11-03T16:18:56.231Z,2.10
2022-11-03T16:23:59.299Z,2.13
2022-11-03T16:29:02.406Z,2.22
2022-11-03T16:34:06.780Z,2.35
2022-11-03T16:39:10.834Z,2.78
2022-11-03T16:44:14.925Z,2.40
2022-11-03T16:49:19.225Z,2.28
2022-11-03T16:54:22.769Z,2.83
2022-11-03T16:59:26.590Z,2.38
2022-11-03T17:04:31.033Z,2.78
2022-11-03T17:09:34.026Z,3.70
2022-11-03T17:14:37.290Z,3.20
2022-11-03T17:19:41.971Z,3.90
2022-11-03T17:24:45.099Z,3.85
2022-11-03T17:29:50.574Z,3.90
2022-11-03T17:34:55.882Z,3.75
2022-11-03T17:39:58.908Z,3.83
2022-11-03T17:45:02.273Z,4.30
2022-11-03T17:50:07.431Z,3.78
2022-11-03T17:55:18.332Z,4.07
2022-11-03T18:00:22.495Z,4.68
2022-11-03T18:05:30.346Z,4.20
2022-11-03T18:10:36.863Z,4.15
2022-11-03T18:15:41.607Z,4.07
2022-11-03T18:20:53.161Z,3.85
2022-11-03T18:25:56.946Z,3.88
2022-11-03T18:30:59.889Z,4.25
2022-11-03T18:36:08.241Z,3.97
2022-11-03T18:41:36.116Z,4.13
2022-11-03T18:46:39.357Z,9.05
2022-11-03T18:51:49.002Z,4.60
2022-11-03T18:56:54.231Z,4.82
2022-11-03T19:01:57.421Z,4.30
2022-11-03T19:07:03.869Z,4.50
2022-11-03T19:12:07.598Z,4.23
2022-11-03T19:17:24.227Z,4.13
2022-11-03T19:22:28.891Z,4.38
2022-11-03T19:27:34.526Z,4.55
2022-11-03T19:32:43.022Z,4.07
2022-11-03T19:37:49.349Z,5.13
2022-11-03T19:42:52.388Z,4.23
2022-11-03T19:48:23.225Z,4.93
2022-11-03T19:53:27.741Z,5.00
2022-11-03T19:58:31.021Z,4.73
2022-11-03T20:03:33.946Z,4.50
2022-11-03T20:08:39.982Z,4.37
2022-11-03T20:13:44.955Z,4.73
2022-11-03T20:18:48.906Z,5.03
2022-11-03T20:23:53.527Z,4.27
2022-11-03T20:28:57.582Z,5.57
2022-11-03T20:34:00.593Z,4.87
2022-11-03T20:39:05.149Z,5.60
2022-11-03T20:44:10.095Z,5.67
2022-11-03T20:49:13.123Z,6.40
2022-11-03T20:54:19.571Z,6.77
2022-11-03T20:59:24.825Z,6.53
2022-11-03T21:04:29.837Z,5.93
2022-11-03T21:09:34.477Z,6.37
2022-11-03T21:14:37.467Z,6.60
2022-11-03T21:19:57.809Z,5.70
2022-11-03T21:25:02.751Z,6.60
2022-11-03T21:30:07.780Z,6.60
2022-11-03T21:35:15.661Z,6.13
2022-11-03T21:40:19.982Z,6.03
2022-11-03T21:45:22.986Z,7.30
2022-11-03T21:50:26.562Z,6.73
2022-11-03T21:55:31.121Z,6.23
2022-11-03T22:00:34.724Z,7.20
2022-11-03T22:05:37.973Z,6.90
2022-11-03T22:10:43.489Z,6.30
2022-11-03T22:16:04.054Z,7.27
2022-11-03T22:21:24.608Z,7.27
2022-11-03T22:26:46.225Z,7.50
2022-11-03T22:31:49.222Z,7.77
2022-11-03T22:36:52.506Z,7.47
2022-11-03T22:42:14.208Z,7.60
2022-11-03T22:47:18.803Z,7.97
2022-11-03T22:52:22.341Z,7.50
2022-11-03T22:57:26.739Z,7.77
2022-11-03T23:02:29.705Z,8.00
2022-11-03T23:07:35.884Z,8.07
2022-11-03T23:12:43.095Z,8.50
2022-11-03T23:18:03.813Z,7.80
2022-11-03T23:23:07.227Z,8.00
2022-11-03T23:28:11.834Z,8.33
2022-11-03T23:33:14.829Z,7.53
2022-11-03T23:38:18.079Z,7.33
2022-11-03T23:43:22.474Z,8.33
2022-11-03T23:48:48.114Z,7.57
2022-11-03T23:53:51.638Z,7.20
2022-11-03T23:58:56.557Z,7.07
